sensor_id;sensor_type;location;lat;lon;timestamp;temperature;humidity
54930;DHT22;40833;53.238;6.576;2022-10-13T00:01:26;10.10;99.90
54930;DHT22;40833;53.238;6.576;2022-10-13T00:03:52;10.10;99.90
54930;DHT22;40833;53.238;6.576;2022-10-13T00:06:22;10.10;99.90
54930;DHT22;40833;53.238;6.576;2022-10-13T00:08:48;10.10;99.90
54930;DHT22;40833;53.238;6.576;2022-10-13T00:13:42;10.20;99.90
54930;DHT22;40833;53.238;6.576;2022-10-13T00:16:09;10.10;99.90
54930;DHT22;40833;53.238;6.576;2022-10-13T00:18:36;11.40;99.90
54930;DHT22;40833;53.238;6.576;2022-10-13T00:21:06;10.10;99.90
54930;DHT22;40833;53.238;6.576;2022-10-13T00:23:33;10.20;99.90
54930;DHT22;40833;53.238;6.576;2022-10-13T00:26:02;10.20;99.90
54930;DHT22;40833;53.238;6.576;2022-10-13T00:28:28;10.20;99.90
54930;DHT22;40833;53.238;6.576;2022-10-13T00:30:54;10.40;99.90
54930;DHT22;40833;53.238;6.576;2022-10-13T00:33:20;10.20;99.90
54930;DHT22;40833;53.238;6.576;2022-10-13T00:35:47;10.20;99.90
54930;DHT22;40833;53.238;6.576;2022-10-13T00:38:14;10.20;99.90
54930;DHT22;40833;53.238;6.576;2022-10-13T00:40:54;10.20;99.90
54930;DHT22;40833;53.238;6.576;2022-10-13T00:43:26;10.20;99.90
54930;DHT22;40833;53.238;6.576;2022-10-13T00:45:55;10.20;99.90
54930;DHT22;40833;53.238;6.576;2022-10-13T00:48:26;10.20;99.90
54930;DHT22;40833;53.238;6.576;2022-10-13T00:50:53;10.20;99.90
54930;DHT22;40833;53.238;6.576;2022-10-13T00:53:22;10.30;99.90
54930;DHT22;40833;53.238;6.576;2022-10-13T00:55:50;10.20;99.90
54930;DHT22;40833;53.238;6.576;2022-10-13T00:58:17;10.20;99.90
54930;DHT22;40833;53.238;6.576;2022-10-13T01:00:46;10.20;99.90
54930;DHT22;40833;53.238;6.576;2022-10-13T01:03:17;10.20;99.90
54930;DHT22;40833;53.238;6.576;2022-10-13T01:05:44;10.20;99.90
54930;DHT22;40833;53.238;6.576;2022-10-13T01:08:11;10.20;99.90
54930;DHT22;40833;53.238;6.576;2022-10-13T01:10:56;10.30;99.90
54930;DHT22;40833;53.238;6.576;2022-10-13T01:30:11;10.20;99.90
54930;DHT22;40833;53.238;6.576;2022-10-13T01:38:02;10.30;99.90
54930;DHT22;40833;53.238;6.576;2022-10-13T01:43:13;10.20;99.90
54930;DHT22;40833;53.238;6.576;2022-10-13T01:45:46;10.40;99.90
54930;DHT22;40833;53.238;6.576;2022-10-13T01:48:14;10.30;99.90
54930;DHT22;40833;53.238;6.576;2022-10-13T01:50:41;10.40;99.90
54930;DHT22;40833;53.238;6.576;2022-10-13T01:53:09;11.30;99.90
54930;DHT22;40833;53.238;6.576;2022-10-13T01:55:35;10.30;99.90
54930;DHT22;40833;53.238;6.576;2022-10-13T01:58:01;10.30;99.90
54930;DHT22;40833;53.238;6.576;2022-10-13T02:00:30;10.30;99.90
54930;DHT22;40833;53.238;6.576;2022-10-13T02:03:22;10.30;99.90
54930;DHT22;40833;53.238;6.576;2022-10-13T02:06:04;10.30;99.90
54930;DHT22;40833;53.238;6.576;2022-10-13T02:11:21;11.20;99.90
54930;DHT22;40833;53.238;6.576;2022-10-13T02:14:06;10.30;99.90
54930;DHT22;40833;53.238;6.576;2022-10-13T02:16:38;10.30;99.90
54930;DHT22;40833;53.238;6.576;2022-10-13T02:19:05;10.30;99.90
54930;DHT22;40833;53.238;6.576;2022-10-13T02:21:32;10.30;99.90
54930;DHT22;40833;53.238;6.576;2022-10-13T02:23:59;10.30;99.90
54930;DHT22;40833;53.238;6.576;2022-10-13T02:26:26;10.20;99.90
54930;DHT22;40833;53.238;6.576;2022-10-13T02:28:52;10.20;99.90
54930;DHT22;40833;53.238;6.576;2022-10-13T02:31:17;10.20;99.90
54930;DHT22;40833;53.238;6.576;2022-10-13T02:33:43;10.60;99.90
54930;DHT22;40833;53.238;6.576;2022-10-13T02:36:09;10.30;99.90
54930;DHT22;40833;53.238;6.576;2022-10-13T02:38:34;10.20;99.90
54930;DHT22;40833;53.238;6.576;2022-10-13T02:41:00;10.20;99.90
54930;DHT22;40833;53.238;6.576;2022-10-13T02:43:27;10.20;99.90
54930;DHT22;40833;53.238;6.576;2022-10-13T02:45:53;10.20;99.90
54930;DHT22;40833;53.238;6.576;2022-10-13T02:48:19;10.10;99.90
54930;DHT22;40833;53.238;6.576;2022-10-13T02:50:45;10.10;99.90
54930;DHT22;40833;53.238;6.576;2022-10-13T02:53:12;10.30;99.90
54930;DHT22;40833;53.238;6.576;2022-10-13T02:55:37;10.10;99.90
54930;DHT22;40833;53.238;6.576;2022-10-13T02:58:03;11.20;99.90
54930;DHT22;40833;53.238;6.576;2022-10-13T03:00:29;10.10;99.90
54930;DHT22;40833;53.238;6.576;2022-10-13T03:02:55;10.10;99.90
54930;DHT22;40833;53.238;6.576;2022-10-13T03:05:21;10.10;99.90
54930;DHT22;40833;53.238;6.576;2022-10-13T03:07:47;10.10;99.90
54930;DHT22;40833;53.238;6.576;2022-10-13T03:10:14;10.10;99.90
54930;DHT22;40833;53.238;6.576;2022-10-13T03:12:40;10.10;99.90
54930;DHT22;40833;53.238;6.576;2022-10-13T03:15:06;10.10;99.90
54930;DHT22;40833;53.238;6.576;2022-10-13T03:17:31;10.10;99.90
54930;DHT22;40833;53.238;6.576;2022-10-13T03:19:57;10.10;99.90
54930;DHT22;40833;53.238;6.576;2022-10-13T03:22:23;10.10;99.90
54930;DHT22;40833;53.238;6.576;2022-10-13T03:24:49;10.10;99.90
54930;DHT22;40833;53.238;6.576;2022-10-13T03:27:14;10.10;99.90
54930;DHT22;40833;53.238;6.576;2022-10-13T03:29:40;10.10;99.90
54930;DHT22;40833;53.238;6.576;2022-10-13T03:32:06;10.10;99.90
54930;DHT22;40833;53.238;6.576;2022-10-13T03:34:31;10.10;99.90
54930;DHT22;40833;53.238;6.576;2022-10-13T03:36:57;10.10;99.90
54930;DHT22;40833;53.238;6.576;2022-10-13T03:39:23;10.10;99.90
54930;DHT22;40833;53.238;6.576;2022-10-13T03:41:48;10.20;99.90
54930;DHT22;40833;53.238;6.576;2022-10-13T03:44:14;10.10;99.90
54930;DHT22;40833;53.238;6.576;2022-10-13T03:46:40;10.10;99.90
54930;DHT22;40833;53.238;6.576;2022-10-13T03:49:06;10.10;99.90
54930;DHT22;40833;53.238;6.576;2022-10-13T03:51:32;10.10;99.90
54930;DHT22;40833;53.238;6.576;2022-10-13T03:53:57;10.10;99.90
54930;DHT22;40833;53.238;6.576;2022-10-13T03:56:25;10.00;99.90
54930;DHT22;40833;53.238;6.576;2022-10-13T03:58:55;10.10;99.90
54930;DHT22;40833;53.238;6.576;2022-10-13T04:01:23;10.10;99.90
54930;DHT22;40833;53.238;6.576;2022-10-13T04:03:51;10.10;99.90
54930;DHT22;40833;53.238;6.576;2022-10-13T04:06:21;10.10;99.90
54930;DHT22;40833;53.238;6.576;2022-10-13T04:08:50;10.20;99.90
54930;DHT22;40833;53.238;6.576;2022-10-13T04:11:16;10.60;99.90
54930;DHT22;40833;53.238;6.576;2022-10-13T04:13:42;10.10;99.90
54930;DHT22;40833;53.238;6.576;2022-10-13T04:16:15;10.10;99.90
54930;DHT22;40833;53.238;6.576;2022-10-13T04:18:41;10.10;99.90
54930;DHT22;40833;53.238;6.576;2022-10-13T04:21:09;10.00;99.90
54930;DHT22;40833;53.238;6.576;2022-10-13T04:23:36;10.00;99.90
54930;DHT22;40833;53.238;6.576;2022-10-13T04:26:03;10.00;99.90
54930;DHT22;40833;53.238;6.576;2022-10-13T04:28:30;10.00;99.90
54930;DHT22;40833;53.238;6.576;2022-10-13T04:31:03;10.40;99.90
54930;DHT22;40833;53.238;6.576;2022-10-13T04:33:29;12.70;99.90
54930;DHT22;40833;53.238;6.576;2022-10-13T04:35:55;10.20;99.90
54930;DHT22;40833;53.238;6.576;2022-10-13T04:38:21;10.00;99.90
54930;DHT22;40833;53.238;6.576;2022-10-13T04:40:46;10.00;99.90
54930;DHT22;40833;53.238;6.576;2022-10-13T04:43:12;10.00;99.90
54930;DHT22;40833;53.238;6.576;2022-10-13T04:45:40;10.00;99.90
54930;DHT22;40833;53.238;6.576;2022-10-13T04:48:06;10.00;99.90
54930;DHT22;40833;53.238;6.576;2022-10-13T04:50:31;10.20;99.90
54930;DHT22;40833;53.238;6.576;2022-10-13T04:52:58;10.00;99.90
54930;DHT22;40833;53.238;6.576;2022-10-13T04:55:23;10.00;99.90
54930;DHT22;40833;53.238;6.576;2022-10-13T04:57:49;10.00;99.90
54930;DHT22;40833;53.238;6.576;2022-10-13T05:00:15;10.00;99.90
54930;DHT22;40833;53.238;6.576;2022-10-13T05:02:41;10.10;99.90
54930;DHT22;40833;53.238;6.576;2022-10-13T05:05:07;10.20;99.90
54930;DHT22;40833;53.238;6.576;2022-10-13T05:07:33;10.00;99.90
54930;DHT22;40833;53.238;6.576;2022-10-13T05:09:59;10.00;99.90
54930;DHT22;40833;53.238;6.576;2022-10-13T05:12:25;10.00;99.90
54930;DHT22;40833;53.238;6.576;2022-10-13T05:14:50;10.00;99.90
54930;DHT22;40833;53.238;6.576;2022-10-13T05:17:16;10.00;99.90
54930;DHT22;40833;53.238;6.576;2022-10-13T05:19:42;10.00;99.90
54930;DHT22;40833;53.238;6.576;2022-10-13T05:22:07;10.10;99.90
54930;DHT22;40833;53.238;6.576;2022-10-13T05:24:33;10.40;99.90
54930;DHT22;40833;53.238;6.576;2022-10-13T05:27:09;10.00;99.90
54930;DHT22;40833;53.238;6.576;2022-10-13T05:29:35;10.40;99.90
54930;DHT22;40833;53.238;6.576;2022-10-13T05:32:02;10.10;99.90
54930;DHT22;40833;53.238;6.576;2022-10-13T05:34:27;10.10;99.90
54930;DHT22;40833;53.238;6.576;2022-10-13T05:36:53;10.10;99.90
54930;DHT22;40833;53.238;6.576;2022-10-13T05:39:19;10.20;99.90
54930;DHT22;40833;53.238;6.576;2022-10-13T05:41:44;10.10;99.90
54930;DHT22;40833;53.238;6.576;2022-10-13T05:44:10;10.10;99.90
54930;DHT22;40833;53.238;6.576;2022-10-13T05:46:36;10.00;99.90
54930;DHT22;40833;53.238;6.576;2022-10-13T05:49:02;10.90;99.90
54930;DHT22;40833;53.238;6.576;2022-10-13T05:51:40;10.60;99.90
54930;DHT22;40833;53.238;6.576;2022-10-13T05:54:55;10.10;99.90
54930;DHT22;40833;53.238;6.576;2022-10-13T05:57:07;10.00;99.90
54930;DHT22;40833;53.238;6.576;2022-10-13T05:59:41;10.10;99.90
54930;DHT22;40833;53.238;6.576;2022-10-13T06:02:11;10.10;99.90
54930;DHT22;40833;53.238;6.576;2022-10-13T06:04:41;10.30;99.90
54930;DHT22;40833;53.238;6.576;2022-10-13T06:07:08;10.10;99.90
54930;DHT22;40833;53.238;6.576;2022-10-13T06:09:35;10.20;99.90
54930;DHT22;40833;53.238;6.576;2022-10-13T06:12:06;10.10;99.90
54930;DHT22;40833;53.238;6.576;2022-10-13T06:14:33;10.10;99.90
54930;DHT22;40833;53.238;6.576;2022-10-13T06:17:01;10.10;99.90
54930;DHT22;40833;53.238;6.576;2022-10-13T06:19:27;10.10;99.90
54930;DHT22;40833;53.238;6.576;2022-10-13T06:21:52;9.90;99.90
54930;DHT22;40833;53.238;6.576;2022-10-13T06:24:18;10.20;99.90
54930;DHT22;40833;53.238;6.576;2022-10-13T06:26:44;10.20;99.90
54930;DHT22;40833;53.238;6.576;2022-10-13T06:29:09;10.20;99.90
54930;DHT22;40833;53.238;6.576;2022-10-13T06:31:36;10.20;99.90
54930;DHT22;40833;53.238;6.576;2022-10-13T06:34:01;10.20;99.90
54930;DHT22;40833;53.238;6.576;2022-10-13T06:36:27;10.30;99.90
54930;DHT22;40833;53.238;6.576;2022-10-13T06:38:53;10.30;99.90
54930;DHT22;40833;53.238;6.576;2022-10-13T06:41:21;10.30;99.90
54930;DHT22;40833;53.238;6.576;2022-10-13T06:43:47;10.30;99.90
54930;DHT22;40833;53.238;6.576;2022-10-13T06:46:12;10.50;99.90
54930;DHT22;40833;53.238;6.576;2022-10-13T06:48:38;10.90;99.90
54930;DHT22;40833;53.238;6.576;2022-10-13T06:51:09;10.50;99.90
54930;DHT22;40833;53.238;6.576;2022-10-13T06:53:35;10.50;99.90
54930;DHT22;40833;53.238;6.576;2022-10-13T06:56:02;10.50;99.90
54930;DHT22;40833;53.238;6.576;2022-10-13T06:58:29;10.50;99.90
54930;DHT22;40833;53.238;6.576;2022-10-13T07:00:55;10.50;99.90
54930;DHT22;40833;53.238;6.576;2022-10-13T07:03:21;10.60;99.90
54930;DHT22;40833;53.238;6.576;2022-10-13T07:05:48;10.60;99.90
54930;DHT22;40833;53.238;6.576;2022-10-13T07:08:14;10.70;99.90
54930;DHT22;40833;53.238;6.576;2022-10-13T07:10:40;10.70;99.90
54930;DHT22;40833;53.238;6.576;2022-10-13T07:13:06;10.70;99.90
54930;DHT22;40833;53.238;6.576;2022-10-13T07:15:31;10.70;99.90
54930;DHT22;40833;53.238;6.576;2022-10-13T07:17:57;10.80;99.90
54930;DHT22;40833;53.238;6.576;2022-10-13T07:20:24;10.90;99.90
54930;DHT22;40833;53.238;6.576;2022-10-13T07:22:55;10.90;99.90
54930;DHT22;40833;53.238;6.576;2022-10-13T07:25:20;10.90;99.90
54930;DHT22;40833;53.238;6.576;2022-10-13T07:27:46;11.00;99.90
54930;DHT22;40833;53.238;6.576;2022-10-13T07:30:12;11.10;99.90
54930;DHT22;40833;53.238;6.576;2022-10-13T07:32:38;11.40;99.90
54930;DHT22;40833;53.238;6.576;2022-10-13T07:35:07;11.50;99.90
54930;DHT22;40833;53.238;6.576;2022-10-13T07:37:33;11.30;99.90
54930;DHT22;40833;53.238;6.576;2022-10-13T07:39:58;11.40;99.90
54930;DHT22;40833;53.238;6.576;2022-10-13T07:42:25;11.40;99.90
54930;DHT22;40833;53.238;6.576;2022-10-13T07:44:51;11.50;99.90
54930;DHT22;40833;53.238;6.576;2022-10-13T07:47:20;11.60;99.90
54930;DHT22;40833;53.238;6.576;2022-10-13T07:49:46;11.60;99.90
54930;DHT22;40833;53.238;6.576;2022-10-13T07:52:11;11.60;99.90
54930;DHT22;40833;53.238;6.576;2022-10-13T07:54:37;11.60;99.90
54930;DHT22;40833;53.238;6.576;2022-10-13T07:57:03;11.70;99.90
54930;DHT22;40833;53.238;6.576;2022-10-13T07:59:31;11.70;99.90
54930;DHT22;40833;53.238;6.576;2022-10-13T08:01:57;11.70;99.90
54930;DHT22;40833;53.238;6.576;2022-10-13T08:04:29;11.70;99.90
54930;DHT22;40833;53.238;6.576;2022-10-13T08:06:56;11.80;99.90
54930;DHT22;40833;53.238;6.576;2022-10-13T08:09:23;11.90;99.90
54930;DHT22;40833;53.238;6.576;2022-10-13T08:11:49;12.00;99.90
54930;DHT22;40833;53.238;6.576;2022-10-13T08:14:15;12.00;99.90
54930;DHT22;40833;53.238;6.576;2022-10-13T08:16:41;12.10;99.90
54930;DHT22;40833;53.238;6.576;2022-10-13T08:19:14;12.20;99.90
54930;DHT22;40833;53.238;6.576;2022-10-13T08:21:40;12.20;99.90
54930;DHT22;40833;53.238;6.576;2022-10-13T08:24:09;12.20;99.90
54930;DHT22;40833;53.238;6.576;2022-10-13T08:26:35;12.30;99.90
54930;DHT22;40833;53.238;6.576;2022-10-13T08:29:01;12.20;99.90
54930;DHT22;40833;53.238;6.576;2022-10-13T08:31:26;12.60;99.90
54930;DHT22;40833;53.238;6.576;2022-10-13T08:33:52;12.20;99.90
54930;DHT22;40833;53.238;6.576;2022-10-13T08:36:18;12.30;99.90
54930;DHT22;40833;53.238;6.576;2022-10-13T08:38:44;12.20;99.90
54930;DHT22;40833;53.238;6.576;2022-10-13T08:43:47;12.20;99.90
54930;DHT22;40833;53.238;6.576;2022-10-13T08:46:19;12.20;99.90
54930;DHT22;40833;53.238;6.576;2022-10-13T08:48:47;12.20;99.90
54930;DHT22;40833;53.238;6.576;2022-10-13T08:51:14;12.20;99.90
54930;DHT22;40833;53.238;6.576;2022-10-13T08:53:44;12.30;99.90
54930;DHT22;40833;53.238;6.576;2022-10-13T08:56:32;12.20;99.90
54930;DHT22;40833;53.238;6.576;2022-10-13T08:58:58;12.30;99.90
54930;DHT22;40833;53.238;6.576;2022-10-13T09:01:31;12.20;99.90
54930;DHT22;40833;53.238;6.576;2022-10-13T09:04:15;12.20;99.90
54930;DHT22;40833;53.238;6.576;2022-10-13T09:07:12;12.20;99.90
54930;DHT22;40833;53.238;6.576;2022-10-13T09:09:41;12.40;99.90
54930;DHT22;40833;53.238;6.576;2022-10-13T09:12:10;12.40;99.90
54930;DHT22;40833;53.238;6.576;2022-10-13T09:14:38;12.40;99.90
54930;DHT22;40833;53.238;6.576;2022-10-13T09:17:19;12.40;99.90
54930;DHT22;40833;53.238;6.576;2022-10-13T09:20:22;12.50;99.90
54930;DHT22;40833;53.238;6.576;2022-10-13T09:23:18;12.50;99.90
54930;DHT22;40833;53.238;6.576;2022-10-13T09:25:51;12.50;99.90
54930;DHT22;40833;53.238;6.576;2022-10-13T09:28:31;12.60;99.90
54930;DHT22;40833;53.238;6.576;2022-10-13T09:31:27;12.60;99.90
54930;DHT22;40833;53.238;6.576;2022-10-13T09:34:06;12.70;99.90
54930;DHT22;40833;53.238;6.576;2022-10-13T09:36:37;12.70;99.90
54930;DHT22;40833;53.238;6.576;2022-10-13T09:41:30;12.80;99.90
54930;DHT22;40833;53.238;6.576;2022-10-13T09:44:06;12.80;99.90
54930;DHT22;40833;53.238;6.576;2022-10-13T09:46:54;12.80;99.90
54930;DHT22;40833;53.238;6.576;2022-10-13T09:52:00;12.80;99.90
54930;DHT22;40833;53.238;6.576;2022-10-13T10:00:37;12.90;99.90
54930;DHT22;40833;53.238;6.576;2022-10-13T10:05:55;13.10;99.90
54930;DHT22;40833;53.238;6.576;2022-10-13T10:08:56;13.10;99.90
54930;DHT22;40833;53.238;6.576;2022-10-13T10:13:55;13.30;99.90
54930;DHT22;40833;53.238;6.576;2022-10-13T10:16:34;13.30;99.90
54930;DHT22;40833;53.238;6.576;2022-10-13T10:21:37;13.40;99.90
54930;DHT22;40833;53.238;6.576;2022-10-13T10:24:23;13.50;99.90
54930;DHT22;40833;53.238;6.576;2022-10-13T10:26:58;13.50;99.90
54930;DHT22;40833;53.238;6.576;2022-10-13T10:29:39;13.60;99.90
54930;DHT22;40833;53.238;6.576;2022-10-13T10:37:51;13.70;99.90
54930;DHT22;40833;53.238;6.576;2022-10-13T10:40:48;13.60;99.90
54930;DHT22;40833;53.238;6.576;2022-10-13T10:46:01;13.50;99.90
54930;DHT22;40833;53.238;6.576;2022-10-13T10:48:32;13.50;99.90
54930;DHT22;40833;53.238;6.576;2022-10-13T10:51:00;13.50;99.90
54930;DHT22;40833;53.238;6.576;2022-10-13T10:53:50;13.50;99.90
54930;DHT22;40833;53.238;6.576;2022-10-13T10:56:34;13.40;99.90
54930;DHT22;40833;53.238;6.576;2022-10-13T11:04:39;13.40;99.90
54930;DHT22;40833;53.238;6.576;2022-10-13T11:17:45;13.60;99.90
54930;DHT22;40833;53.238;6.576;2022-10-13T11:30:47;13.90;99.90
54930;DHT22;40833;53.238;6.576;2022-10-13T11:33:51;14.00;99.90
54930;DHT22;40833;53.238;6.576;2022-10-13T11:36:38;14.10;99.90
54930;DHT22;40833;53.238;6.576;2022-10-13T11:39:33;14.10;99.90
54930;DHT22;40833;53.238;6.576;2022-10-13T11:45:37;14.20;99.90
54930;DHT22;40833;53.238;6.576;2022-10-13T11:51:12;14.20;99.90
54930;DHT22;40833;53.238;6.576;2022-10-13T11:53:46;14.30;99.90
54930;DHT22;40833;53.238;6.576;2022-10-13T11:56:21;14.30;99.90
54930;DHT22;40833;53.238;6.576;2022-10-13T11:58:48;14.30;99.90
54930;DHT22;40833;53.238;6.576;2022-10-13T12:01:15;14.40;99.90
54930;DHT22;40833;53.238;6.576;2022-10-13T12:03:42;14.40;99.90
54930;DHT22;40833;53.238;6.576;2022-10-13T12:06:28;14.40;99.90
54930;DHT22;40833;53.238;6.576;2022-10-13T12:09:03;14.40;99.90
54930;DHT22;40833;53.238;6.576;2022-10-13T12:11:35;14.40;99.90
54930;DHT22;40833;53.238;6.576;2022-10-13T12:14:01;14.50;99.90
54930;DHT22;40833;53.238;6.576;2022-10-13T12:16:28;14.50;99.90
54930;DHT22;40833;53.238;6.576;2022-10-13T12:19:09;14.60;99.90
54930;DHT22;40833;53.238;6.576;2022-10-13T12:21:52;14.70;99.90
54930;DHT22;40833;53.238;6.576;2022-10-13T12:24:21;14.80;99.90
54930;DHT22;40833;53.238;6.576;2022-10-13T12:26:48;14.90;99.90
54930;DHT22;40833;53.238;6.576;2022-10-13T12:29:15;14.80;99.90
54930;DHT22;40833;53.238;6.576;2022-10-13T12:31:46;14.80;99.90
54930;DHT22;40833;53.238;6.576;2022-10-13T12:34:25;14.80;99.90
54930;DHT22;40833;53.238;6.576;2022-10-13T12:39:44;14.80;99.90
54930;DHT22;40833;53.238;6.576;2022-10-13T12:42:12;14.80;99.90
54930;DHT22;40833;53.238;6.576;2022-10-13T12:44:39;14.80;99.90
54930;DHT22;40833;53.238;6.576;2022-10-13T12:47:05;14.80;99.90
54930;DHT22;40833;53.238;6.576;2022-10-13T12:49:51;14.80;99.90
54930;DHT22;40833;53.238;6.576;2022-10-13T12:52:22;14.90;99.90
54930;DHT22;40833;53.238;6.576;2022-10-13T12:54:54;14.90;99.90
54930;DHT22;40833;53.238;6.576;2022-10-13T12:57:32;14.90;99.90
54930;DHT22;40833;53.238;6.576;2022-10-13T13:02:53;14.90;99.90
54930;DHT22;40833;53.238;6.576;2022-10-13T13:07:55;14.80;99.90
54930;DHT22;40833;53.238;6.576;2022-10-13T13:10:21;14.90;99.90
54930;DHT22;40833;53.238;6.576;2022-10-13T13:12:53;14.90;99.90
54930;DHT22;40833;53.238;6.576;2022-10-13T13:15:37;14.90;99.90
54930;DHT22;40833;53.238;6.576;2022-10-13T13:18:27;14.90;99.90
54930;DHT22;40833;53.238;6.576;2022-10-13T13:20:54;14.90;99.90
54930;DHT22;40833;53.238;6.576;2022-10-13T13:23:20;14.90;99.90
54930;DHT22;40833;53.238;6.576;2022-10-13T13:28:52;14.90;99.90
54930;DHT22;40833;53.238;6.576;2022-10-13T13:31:20;14.90;99.90
54930;DHT22;40833;53.238;6.576;2022-10-13T13:33:47;14.90;99.90
54930;DHT22;40833;53.238;6.576;2022-10-13T13:36:18;14.90;99.90
54930;DHT22;40833;53.238;6.576;2022-10-13T13:38:45;14.90;99.90
54930;DHT22;40833;53.238;6.576;2022-10-13T13:41:11;14.90;99.90
54930;DHT22;40833;53.238;6.576;2022-10-13T13:43:37;14.90;99.90
54930;DHT22;40833;53.238;6.576;2022-10-13T13:46:04;14.90;99.90
54930;DHT22;40833;53.238;6.576;2022-10-13T13:48:31;14.90;99.90
54930;DHT22;40833;53.238;6.576;2022-10-13T13:50:57;14.90;99.90
54930;DHT22;40833;53.238;6.576;2022-10-13T13:53:22;15.00;99.90
54930;DHT22;40833;53.238;6.576;2022-10-13T13:55:48;15.00;99.90
54930;DHT22;40833;53.238;6.576;2022-10-13T13:58:14;14.90;99.90
54930;DHT22;40833;53.238;6.576;2022-10-13T14:00:40;14.90;99.90
54930;DHT22;40833;53.238;6.576;2022-10-13T14:03:06;15.00;99.90
54930;DHT22;40833;53.238;6.576;2022-10-13T14:05:31;15.00;99.90
54930;DHT22;40833;53.238;6.576;2022-10-13T14:07:57;15.00;99.90
54930;DHT22;40833;53.238;6.576;2022-10-13T14:10:24;15.00;99.90
54930;DHT22;40833;53.238;6.576;2022-10-13T14:12:51;15.00;99.90
54930;DHT22;40833;53.238;6.576;2022-10-13T14:15:17;14.90;99.90
54930;DHT22;40833;53.238;6.576;2022-10-13T14:17:43;14.90;99.90
54930;DHT22;40833;53.238;6.576;2022-10-13T14:20:09;14.90;99.90
54930;DHT22;40833;53.238;6.576;2022-10-13T14:22:38;14.90;99.90
54930;DHT22;40833;53.238;6.576;2022-10-13T14:25:05;14.80;99.90
54930;DHT22;40833;53.238;6.576;2022-10-13T14:27:33;14.80;99.90
54930;DHT22;40833;53.238;6.576;2022-10-13T14:29:59;14.80;99.90
54930;DHT22;40833;53.238;6.576;2022-10-13T14:32:26;14.80;99.90
54930;DHT22;40833;53.238;6.576;2022-10-13T14:34:52;14.70;99.90
54930;DHT22;40833;53.238;6.576;2022-10-13T14:37:17;14.60;99.90
54930;DHT22;40833;53.238;6.576;2022-10-13T14:39:43;14.70;99.90
54930;DHT22;40833;53.238;6.576;2022-10-13T14:42:09;14.70;99.90
54930;DHT22;40833;53.238;6.576;2022-10-13T14:44:35;14.60;99.90
54930;DHT22;40833;53.238;6.576;2022-10-13T14:47:00;14.60;99.90
54930;DHT22;40833;53.238;6.576;2022-10-13T14:49:26;14.60;99.90
54930;DHT22;40833;53.238;6.576;2022-10-13T14:51:52;14.50;99.90
54930;DHT22;40833;53.238;6.576;2022-10-13T14:54:17;14.50;99.90
54930;DHT22;40833;53.238;6.576;2022-10-13T14:56:43;14.50;99.90
54930;DHT22;40833;53.238;6.576;2022-10-13T14:59:10;14.40;99.90
54930;DHT22;40833;53.238;6.576;2022-10-13T15:01:36;14.40;99.90
54930;DHT22;40833;53.238;6.576;2022-10-13T15:04:03;13.80;99.90
54930;DHT22;40833;53.238;6.576;2022-10-13T15:06:29;14.40;99.90
54930;DHT22;40833;53.238;6.576;2022-10-13T15:08:55;14.40;99.90
54930;DHT22;40833;53.238;6.576;2022-10-13T15:11:21;14.30;99.90
54930;DHT22;40833;53.238;6.576;2022-10-13T15:13:47;14.30;99.90
54930;DHT22;40833;53.238;6.576;2022-10-13T15:16:21;14.30;99.90
54930;DHT22;40833;53.238;6.576;2022-10-13T15:18:48;14.40;99.90
54930;DHT22;40833;53.238;6.576;2022-10-13T15:21:15;14.40;99.90
54930;DHT22;40833;53.238;6.576;2022-10-13T15:23:41;14.40;99.90
54930;DHT22;40833;53.238;6.576;2022-10-13T15:26:07;14.40;99.90
54930;DHT22;40833;53.238;6.576;2022-10-13T15:28:40;14.40;99.90
54930;DHT22;40833;53.238;6.576;2022-10-13T15:31:06;14.40;99.90
54930;DHT22;40833;53.238;6.576;2022-10-13T15:33:33;14.30;99.90
54930;DHT22;40833;53.238;6.576;2022-10-13T15:35:59;14.30;99.90
54930;DHT22;40833;53.238;6.576;2022-10-13T15:38:25;14.30;99.90
54930;DHT22;40833;53.238;6.576;2022-10-13T15:40:51;14.30;99.90
54930;DHT22;40833;53.238;6.576;2022-10-13T15:43:17;14.30;99.90
54930;DHT22;40833;53.238;6.576;2022-10-13T15:45:52;14.30;99.90
54930;DHT22;40833;53.238;6.576;2022-10-13T15:48:19;14.20;99.90
54930;DHT22;40833;53.238;6.576;2022-10-13T15:50:44;14.20;99.90
54930;DHT22;40833;53.238;6.576;2022-10-13T15:53:10;14.20;99.90
54930;DHT22;40833;53.238;6.576;2022-10-13T15:55:37;14.20;99.90
54930;DHT22;40833;53.238;6.576;2022-10-13T15:58:03;14.20;99.90
54930;DHT22;40833;53.238;6.576;2022-10-13T16:00:29;14.10;99.90
54930;DHT22;40833;53.238;6.576;2022-10-13T16:02:54;14.00;99.90
54930;DHT22;40833;53.238;6.576;2022-10-13T16:05:20;14.00;99.90
54930;DHT22;40833;53.238;6.576;2022-10-13T16:07:48;13.90;99.90
54930;DHT22;40833;53.238;6.576;2022-10-13T16:10:17;13.90;99.90
54930;DHT22;40833;53.238;6.576;2022-10-13T16:12:43;13.90;99.90
54930;DHT22;40833;53.238;6.576;2022-10-13T16:15:09;13.80;99.90
54930;DHT22;40833;53.238;6.576;2022-10-13T16:17:35;13.70;99.90
54930;DHT22;40833;53.238;6.576;2022-10-13T16:20:02;13.70;99.90
54930;DHT22;40833;53.238;6.576;2022-10-13T16:22:28;13.70;99.90
54930;DHT22;40833;53.238;6.576;2022-10-13T16:24:53;14.00;99.90
54930;DHT22;40833;53.238;6.576;2022-10-13T16:27:19;13.60;99.90
54930;DHT22;40833;53.238;6.576;2022-10-13T16:29:45;13.60;99.90
54930;DHT22;40833;53.238;6.576;2022-10-13T16:32:13;13.60;99.90
54930;DHT22;40833;53.238;6.576;2022-10-13T16:34:39;13.50;99.90
54930;DHT22;40833;53.238;6.576;2022-10-13T16:37:05;13.50;99.90
54930;DHT22;40833;53.238;6.576;2022-10-13T16:39:30;13.50;99.90
54930;DHT22;40833;53.238;6.576;2022-10-13T16:41:56;13.50;99.90
54930;DHT22;40833;53.238;6.576;2022-10-13T16:44:22;13.40;99.90
54930;DHT22;40833;53.238;6.576;2022-10-13T16:46:48;13.40;99.90
54930;DHT22;40833;53.238;6.576;2022-10-13T16:49:14;13.40;99.90
54930;DHT22;40833;53.238;6.576;2022-10-13T16:51:40;13.30;99.90
54930;DHT22;40833;53.238;6.576;2022-10-13T16:54:06;13.40;99.90
54930;DHT22;40833;53.238;6.576;2022-10-13T16:56:32;13.50;99.90
54930;DHT22;40833;53.238;6.576;2022-10-13T16:59:00;13.40;99.90
54930;DHT22;40833;53.238;6.576;2022-10-13T17:01:27;13.30;99.90
54930;DHT22;40833;53.238;6.576;2022-10-13T17:03:53;13.30;99.90
54930;DHT22;40833;53.238;6.576;2022-10-13T17:06:21;13.30;99.90
54930;DHT22;40833;53.238;6.576;2022-10-13T17:08:47;13.30;99.90
54930;DHT22;40833;53.238;6.576;2022-10-13T17:11:22;13.60;99.90
54930;DHT22;40833;53.238;6.576;2022-10-13T17:13:48;13.30;99.90
54930;DHT22;40833;53.238;6.576;2022-10-13T17:16:15;13.30;99.90
54930;DHT22;40833;53.238;6.576;2022-10-13T17:18:41;13.30;99.90
54930;DHT22;40833;53.238;6.576;2022-10-13T17:21:08;13.30;99.90
54930;DHT22;40833;53.238;6.576;2022-10-13T17:23:35;13.30;99.90
54930;DHT22;40833;53.238;6.576;2022-10-13T17:26:06;13.20;99.90